createdAt,value
2022-10-22T00:00:42.847Z,63.30
2022-10-22T00:03:31.963Z,72.95
2022-10-22T00:06:01.592Z,68.32
2022-10-22T00:08:32.283Z,60.08
2022-10-22T00:11:08.700Z,70.55
2022-10-22T00:13:37.955Z,65.43
2022-10-22T00:16:07.482Z,63.60
2022-10-22T00:18:36.907Z,63.67
2022-10-22T00:21:07.899Z,55.95
2022-10-22T00:23:41.264Z,59.80
2022-10-22T00:26:11.179Z,58.58
2022-10-22T00:31:09.902Z,57.05
2022-10-22T00:33:39.183Z,56.40
2022-10-22T00:36:09.576Z,61.40
2022-10-22T00:38:40.339Z,67.82
2022-10-22T00:41:10.378Z,58.83
2022-10-22T00:46:23.834Z,62.70
2022-10-22T00:48:54.052Z,67.40
2022-10-22T00:51:26.841Z,65.53
2022-10-22T00:54:03.006Z,67.05
2022-10-22T00:56:33.104Z,69.00
2022-10-22T00:59:03.702Z,65.72
2022-10-22T01:01:33.753Z,59.40
2022-10-22T01:06:34.314Z,67.70
2022-10-22T01:09:15.391Z,62.22
2022-10-22T01:11:56.262Z,65.10
2022-10-22T01:14:32.664Z,56.83
2022-10-22T01:17:09.212Z,57.33
2022-10-22T01:19:50.765Z,65.57
2022-10-22T01:22:30.749Z,67.85
2022-10-22T01:25:10.160Z,63.58
2022-10-22T01:27:56.053Z,64.40
2022-10-22T01:30:27.339Z,63.10
2022-10-22T01:33:01.078Z,66.65
2022-10-22T01:38:08.837Z,58.15
2022-10-22T01:40:38.982Z,63.78
2022-10-22T01:43:09.950Z,61.80
2022-10-22T01:45:44.076Z,58.20
2022-10-22T01:48:31.227Z,64.28
2022-10-22T01:51:24.382Z,68.45
2022-10-22T01:53:59.274Z,64.97
2022-10-22T01:56:42.166Z,68.55
2022-10-22T01:59:24.270Z,66.38
2022-10-22T02:02:01.844Z,63.83
2022-10-22T02:04:36.979Z,63.28
2022-10-22T02:07:10.167Z,63.78
2022-10-22T02:09:41.556Z,67.22
2022-10-22T02:12:11.978Z,65.15
2022-10-22T02:14:45.199Z,62.20
2022-10-22T02:17:19.975Z,65.65
2022-10-22T02:19:54.716Z,61.63
2022-10-22T02:22:24.730Z,59.35
2022-10-22T02:24:54.113Z,65.18
2022-10-22T02:27:29.307Z,61.05
2022-10-22T02:33:53.510Z,62.10
2022-10-22T02:36:24.640Z,56.05
2022-10-22T02:38:55.607Z,55.90
2022-10-22T02:41:25.491Z,61.47
2022-10-22T02:46:25.618Z,52.67
2022-10-22T02:48:56.400Z,57.03
2022-10-22T02:51:25.845Z,58.38
2022-10-22T02:53:54.969Z,53.53
2022-10-22T02:56:24.547Z,57.17
2022-10-22T02:58:53.989Z,53.05
2022-10-22T03:01:23.510Z,53.05
2022-10-22T03:03:52.931Z,54.72
2022-10-22T03:08:54.792Z,50.10
2022-10-22T03:11:24.158Z,54.42
2022-10-22T03:13:53.444Z,54.85
2022-10-22T03:16:22.766Z,57.90
2022-10-22T03:18:52.026Z,60.10
2022-10-22T03:21:31.197Z,54.13
2022-10-22T03:24:03.937Z,54.78
2022-10-22T03:26:34.079Z,56.33
2022-10-22T03:29:03.737Z,56.08
2022-10-22T03:31:33.079Z,49.45
2022-10-22T03:34:02.290Z,53.92
2022-10-22T03:36:34.043Z,57.15
2022-10-22T03:39:04.020Z,55.63
2022-10-22T03:41:33.947Z,49.80
2022-10-22T03:44:04.676Z,53.08
2022-10-22T03:46:34.332Z,61.28
2022-10-22T03:49:03.535Z,48.15
2022-10-22T03:51:35.925Z,50.65
2022-10-22T03:54:05.572Z,52.17
2022-10-22T03:56:34.942Z,57.17
2022-10-22T04:01:34.441Z,53.22
2022-10-22T04:06:34.108Z,53.00
2022-10-22T04:09:03.422Z,50.05
2022-10-22T04:11:32.823Z,56.97
2022-10-22T04:14:01.973Z,50.55
2022-10-22T04:16:32.867Z,57.65
2022-10-22T04:19:02.792Z,51.55
2022-10-22T04:21:33.654Z,57.42
2022-10-22T04:24:02.956Z,55.83
2022-10-22T04:26:32.472Z,50.30
2022-10-22T04:29:01.695Z,51.33
2022-10-22T04:31:31.101Z,52.67
2022-10-22T04:34:01.917Z,55.25
2022-10-22T04:36:31.610Z,52.88
2022-10-22T04:39:03.464Z,54.60
2022-10-22T04:41:34.921Z,53.33
2022-10-22T04:44:04.604Z,50.30
2022-10-22T04:46:36.400Z,52.72
2022-10-22T04:49:06.009Z,52.97
2022-10-22T04:51:35.420Z,57.65
2022-10-22T04:56:35.847Z,50.53
2022-10-22T04:59:07.258Z,57.95
2022-10-22T05:01:41.741Z,58.67
2022-10-22T05:04:14.929Z,61.33
2022-10-22T05:06:44.878Z,67.20
2022-10-22T05:11:48.960Z,49.13
2022-10-22T05:14:20.627Z,51.22
2022-10-22T05:16:50.339Z,48.88
2022-10-22T05:19:24.146Z,46.05
2022-10-22T05:21:55.087Z,48.60
2022-10-22T05:24:26.233Z,55.83
2022-10-22T05:26:57.510Z,46.88
2022-10-22T05:29:27.514Z,53.20
2022-10-22T05:31:56.969Z,55.70
2022-10-22T05:34:26.228Z,50.90
2022-10-22T05:36:55.708Z,44.72
2022-10-22T05:39:28.544Z,45.67
2022-10-22T05:41:58.667Z,50.88
2022-10-22T05:44:27.949Z,50.70
2022-10-22T05:46:57.277Z,56.60
2022-10-22T05:49:26.488Z,46.35
2022-10-22T05:51:55.783Z,46.03
2022-10-22T05:54:26.433Z,56.03
2022-10-22T05:56:55.873Z,55.85
2022-10-22T05:59:25.079Z,57.45
2022-10-22T06:01:54.992Z,54.28
2022-10-22T06:06:54.742Z,55.83
2022-10-22T06:09:28.639Z,56.70
2022-10-22T06:11:59.438Z,58.28
2022-10-22T06:14:29.489Z,64.03
2022-10-22T06:17:01.612Z,62.83
2022-10-22T06:19:31.459Z,60.70
2022-10-22T06:22:00.800Z,62.10
2022-10-22T06:24:31.551Z,67.82
2022-10-22T06:27:00.918Z,62.20
2022-10-22T06:29:30.047Z,69.43
2022-10-22T06:31:59.357Z,64.75
2022-10-22T06:34:28.592Z,74.40
2022-10-22T06:36:57.930Z,65.65
2022-10-22T06:39:27.127Z,66.97
2022-10-22T06:41:58.017Z,62.67
2022-10-22T06:44:29.499Z,66.93
2022-10-22T06:49:28.117Z,67.95
2022-10-22T06:51:57.637Z,63.08
2022-10-22T06:54:26.806Z,68.10
2022-10-22T06:56:57.551Z,67.60
2022-10-22T06:59:26.788Z,69.20
2022-10-22T07:01:56.168Z,67.25
2022-10-22T07:04:25.560Z,62.97
2022-10-22T07:06:57.114Z,65.90
2022-10-22T07:09:26.620Z,67.30
2022-10-22T07:14:26.385Z,64.47
2022-10-22T07:16:55.736Z,63.95
2022-10-22T07:19:24.969Z,65.30
2022-10-22T07:21:54.466Z,63.88
2022-10-22T07:24:23.586Z,67.68
2022-10-22T07:26:52.999Z,64.95
2022-10-22T07:29:23.598Z,60.55
2022-10-22T07:31:53.044Z,59.67
2022-10-22T07:34:22.185Z,61.58
2022-10-22T07:36:51.513Z,65.13
2022-10-22T07:39:20.692Z,56.97
2022-10-22T07:41:50.002Z,63.75
2022-10-22T07:44:19.246Z,65.10
2022-10-22T07:46:49.994Z,63.40
2022-10-22T07:49:19.228Z,60.47
2022-10-22T07:51:48.529Z,59.53
2022-10-22T07:54:19.335Z,62.50
2022-10-22T07:56:48.759Z,62.17
2022-10-22T07:59:17.942Z,54.75
2022-10-22T08:01:48.805Z,62.60
2022-10-22T08:04:18.020Z,61.67
2022-10-22T08:06:48.038Z,68.40
2022-10-22T08:09:17.305Z,65.93
2022-10-22T08:11:47.096Z,64.13
2022-10-22T08:16:46.427Z,61.55
2022-10-22T08:19:18.964Z,75.05
2022-10-22T08:21:48.575Z,67.13
2022-10-22T08:24:18.070Z,61.80
2022-10-22T08:26:47.566Z,75.40
2022-10-22T08:29:17.056Z,70.35
2022-10-22T08:31:46.378Z,74.63
2022-10-22T08:34:17.064Z,81.78
2022-10-22T08:36:46.457Z,69.95
2022-10-22T08:41:53.843Z,65.50
2022-10-22T08:44:51.149Z,63.05
2022-10-22T08:47:39.464Z,62.45
2022-10-22T08:50:14.536Z,68.68
2022-10-22T08:52:45.914Z,69.72
2022-10-22T08:55:17.063Z,70.70
2022-10-22T08:57:56.901Z,79.40
2022-10-22T09:00:32.471Z,68.07
2022-10-22T09:03:19.430Z,74.15
2022-10-22T09:05:58.582Z,69.55
2022-10-22T09:08:28.500Z,70.63
2022-10-22T09:11:03.836Z,66.18
2022-10-22T09:13:33.506Z,66.05
2022-10-22T09:16:15.393Z,63.88
2022-10-22T09:18:53.139Z,62.65
2022-10-22T09:21:34.206Z,68.95
2022-10-22T09:24:10.655Z,68.32
2022-10-22T09:26:42.106Z,65.18
2022-10-22T09:29:19.666Z,71.50
2022-10-22T09:31:49.139Z,63.25
2022-10-22T09:36:59.784Z,62.60
2022-10-22T09:39:33.389Z,66.85
2022-10-22T09:42:02.616Z,65.80
2022-10-22T09:44:35.953Z,71.18
2022-10-22T09:47:07.143Z,65.90
2022-10-22T09:49:37.700Z,72.65
2022-10-22T09:52:27.767Z,66.28
2022-10-22T09:54:57.439Z,63.58
2022-10-22T09:59:57.559Z,64.65
2022-10-22T10:02:38.795Z,63.35
2022-10-22T10:05:10.082Z,59.28
2022-10-22T10:07:41.093Z,65.63
2022-10-22T10:10:20.823Z,59.42
2022-10-22T10:12:56.619Z,60.08
2022-10-22T10:15:34.030Z,58.47
2022-10-22T10:18:15.779Z,61.50
2022-10-22T10:20:54.468Z,64.05
2022-10-22T10:23:35.159Z,60.50
2022-10-22T10:26:11.484Z,60.83
2022-10-22T10:28:56.947Z,56.47
2022-10-22T10:31:40.360Z,57.15
2022-10-22T10:34:24.236Z,57.03
2022-10-22T10:37:02.658Z,37.53
2022-10-22T10:39:41.530Z,40.13
2022-10-22T10:42:23.225Z,34.42
2022-10-22T10:45:04.949Z,27.90
2022-10-22T10:48:09.664Z,27.58
2022-10-22T10:50:51.186Z,27.45
2022-10-22T10:53:36.507Z,29.60
2022-10-22T10:56:24.454Z,28.30
2022-10-22T10:59:03.116Z,29.52
2022-10-22T11:01:43.148Z,29.45
2022-10-22T11:04:41.882Z,25.50
2022-10-22T11:07:23.335Z,24.58
2022-10-22T11:10:11.166Z,26.55
2022-10-22T11:12:48.833Z,25.65
2022-10-22T11:15:28.343Z,32.78
2022-10-22T11:18:04.355Z,34.92
2022-10-22T11:20:50.042Z,21.52
2022-10-22T11:23:25.866Z,24.90
2022-10-22T11:25:55.456Z,36.47
2022-10-22T11:28:33.289Z,28.05
2022-10-22T11:31:07.429Z,26.88
2022-10-22T11:33:45.780Z,23.50
2022-10-22T11:36:17.035Z,24.67
2022-10-22T11:38:46.694Z,25.98
2022-10-22T11:41:20.151Z,25.73
2022-10-22T11:44:09.672Z,24.73
2022-10-22T11:46:47.088Z,29.67
2022-10-22T11:49:24.605Z,23.48
2022-10-22T11:52:07.447Z,25.98
2022-10-22T11:54:45.996Z,25.77
2022-10-22T11:57:21.792Z,27.75
2022-10-22T11:59:57.348Z,33.53
2022-10-22T12:02:39.787Z,29.30
2022-10-22T12:05:37.274Z,34.60
2022-10-22T12:08:22.077Z,38.55
2022-10-22T12:11:07.698Z,33.33
2022-10-22T12:14:03.287Z,33.58
2022-10-22T12:16:55.859Z,41.60
2022-10-22T12:19:31.462Z,37.33
2022-10-22T12:22:04.403Z,42.08
2022-10-22T12:24:36.553Z,38.65
2022-10-22T12:27:18.148Z,44.13
2022-10-22T12:29:50.609Z,33.42
2022-10-22T12:32:21.555Z,44.05
2022-10-22T12:34:52.712Z,36.08
2022-10-22T12:37:23.497Z,46.33
2022-10-22T12:39:53.409Z,45.78
2022-10-22T12:42:24.108Z,43.38
2022-10-22T12:44:57.953Z,51.95
2022-10-22T12:47:32.398Z,51.50
2022-10-22T12:50:06.251Z,60.28
2022-10-22T12:52:37.370Z,47.33
2022-10-22T12:55:10.380Z,47.95
2022-10-22T12:57:40.297Z,45.88
2022-10-22T13:00:23.028Z,52.45
2022-10-22T13:02:54.643Z,51.83
2022-10-22T13:05:27.864Z,41.60
2022-10-22T13:08:05.413Z,50.47
2022-10-22T13:10:37.532Z,49.65
2022-10-22T13:13:07.779Z,53.13
2022-10-22T13:15:40.347Z,56.50
2022-10-22T13:18:20.698Z,57.13
2022-10-22T13:20:56.202Z,64.82
2022-10-22T13:23:26.867Z,65.55
2022-10-22T13:26:04.581Z,63.60
2022-10-22T13:28:34.444Z,52.53
2022-10-22T13:31:11.190Z,56.70
2022-10-22T13:33:44.850Z,51.70
2022-10-22T13:36:17.598Z,63.15
2022-10-22T13:38:46.927Z,54.92
2022-10-22T13:43:53.783Z,62.78
2022-10-22T13:46:24.170Z,64.75
2022-10-22T13:48:57.648Z,63.25
2022-10-22T13:51:37.047Z,59.95
2022-10-22T13:54:08.499Z,73.38
2022-10-22T13:56:38.361Z,73.18
2022-10-22T13:59:07.487Z,66.80
2022-10-22T14:04:12.620Z,70.57
2022-10-22T14:06:45.199Z,65.47
2022-10-22T14:09:17.531Z,62.17
2022-10-22T14:11:47.024Z,75.00
2022-10-22T14:14:17.386Z,64.38
2022-10-22T14:16:47.110Z,69.97
2022-10-22T14:19:19.501Z,69.82
2022-10-22T14:21:49.484Z,71.13
2022-10-22T14:24:18.720Z,65.68
2022-10-22T14:26:48.243Z,61.75
2022-10-22T14:29:17.362Z,71.35
2022-10-22T14:34:17.967Z,61.95
2022-10-22T14:36:47.408Z,63.35
2022-10-22T14:39:18.361Z,61.83
2022-10-22T14:41:48.227Z,62.72
2022-10-22T14:44:17.337Z,65.63
2022-10-22T14:51:46.743Z,61.40
2022-10-22T14:54:15.950Z,57.53
2022-10-22T14:59:14.310Z,57.97
2022-10-22T15:06:43.925Z,50.47
2022-10-22T15:09:13.840Z,54.30
2022-10-22T15:14:12.406Z,57.60
2022-10-22T15:16:41.855Z,46.58
2022-10-22T15:19:11.503Z,49.25
2022-10-22T15:24:16.797Z,54.88
2022-10-22T15:26:46.159Z,53.50
2022-10-22T15:29:15.397Z,48.45
2022-10-22T15:34:19.862Z,47.58
2022-10-22T15:36:51.090Z,45.45
2022-10-22T15:39:20.453Z,52.10
2022-10-22T15:49:26.033Z,42.67
2022-10-22T15:51:57.376Z,41.17
2022-10-22T15:54:28.817Z,39.97
2022-10-22T15:56:59.906Z,45.88
2022-10-22T15:59:29.260Z,46.88
2022-10-22T16:01:58.672Z,48.90
2022-10-22T16:04:27.967Z,30.33
2022-10-22T16:09:29.397Z,41.85
2022-10-22T16:11:58.886Z,44.83
2022-10-22T16:14:29.046Z,42.30
2022-10-22T16:16:59.774Z,43.15
2022-10-22T16:19:29.257Z,43.53
2022-10-22T16:22:02.267Z,41.92
2022-10-22T16:24:32.327Z,44.38
2022-10-22T16:27:01.882Z,41.17
2022-10-22T16:29:31.154Z,39.85
2022-10-22T16:32:00.780Z,39.65
2022-10-22T16:34:30.471Z,42.10
2022-10-22T16:37:01.312Z,43.50
2022-10-22T16:39:30.934Z,44.05
2022-10-22T16:42:00.483Z,42.38
2022-10-22T16:46:59.109Z,48.88
2022-10-22T16:51:57.881Z,40.00
2022-10-22T16:56:57.927Z,44.95
2022-10-22T17:01:56.536Z,49.58
2022-10-22T17:06:55.433Z,50.30
2022-10-22T17:09:25.546Z,47.58
2022-10-22T17:11:56.443Z,49.00
2022-10-22T17:14:25.873Z,50.85
2022-10-22T17:16:55.408Z,50.83
2022-10-22T17:21:54.548Z,51.03
2022-10-22T17:24:23.718Z,54.92
2022-10-22T17:26:53.113Z,58.20
2022-10-22T17:29:25.475Z,55.13
2022-10-22T17:31:54.909Z,50.85
2022-10-22T17:34:24.037Z,55.80
2022-10-22T17:36:53.385Z,50.90
2022-10-22T17:39:22.509Z,47.45
2022-10-22T17:44:20.859Z,51.97
2022-10-22T17:49:21.625Z,47.80
2022-10-22T17:51:51.150Z,47.72
2022-10-22T17:54:20.327Z,43.05
2022-10-22T17:59:19.985Z,43.30
2022-10-22T18:04:22.033Z,38.00
2022-10-22T18:06:54.006Z,38.90
2022-10-22T18:09:24.953Z,36.40
2022-10-22T18:11:56.866Z,38.45
2022-10-22T18:14:26.199Z,41.70
2022-10-22T18:16:55.727Z,33.97
2022-10-22T18:19:26.691Z,36.05
2022-10-22T18:21:56.411Z,41.42
2022-10-22T18:26:54.724Z,35.22
2022-10-22T18:29:23.909Z,35.40
2022-10-22T18:31:53.266Z,34.97
2022-10-22T18:34:25.146Z,39.20
2022-10-22T18:36:54.762Z,33.90
2022-10-22T18:39:24.373Z,36.35
2022-10-22T18:41:53.755Z,38.28
2022-10-22T18:44:24.819Z,34.17
2022-10-22T18:46:54.735Z,32.88
2022-10-22T18:49:25.433Z,37.67
2022-10-22T18:51:54.827Z,41.35
2022-10-22T18:57:00.499Z,38.60
2022-10-22T18:59:31.367Z,41.97
2022-10-22T19:02:01.413Z,39.65
2022-10-22T19:04:37.093Z,39.88
2022-10-22T19:09:43.507Z,37.33
2022-10-22T19:12:15.178Z,38.63
2022-10-22T19:14:44.646Z,32.60
2022-10-22T19:19:46.442Z,33.17
2022-10-22T19:22:15.841Z,30.33
2022-10-22T19:24:47.155Z,27.02
2022-10-22T19:27:16.687Z,27.10
2022-10-22T19:29:46.256Z,28.02
2022-10-22T19:32:16.623Z,26.30
2022-10-22T19:34:47.448Z,24.98
2022-10-22T19:37:16.838Z,23.55
2022-10-22T19:39:46.018Z,21.50
2022-10-22T19:44:44.307Z,22.50
2022-10-22T19:47:13.821Z,27.67
2022-10-22T19:49:42.996Z,23.88
2022-10-22T19:52:14.758Z,21.67
2022-10-22T19:54:45.687Z,28.38
2022-10-22T19:57:17.681Z,24.25
2022-10-22T19:59:47.159Z,23.52
2022-10-22T20:02:18.196Z,20.58
2022-10-22T20:04:50.015Z,26.30
2022-10-22T20:07:21.621Z,20.15
2022-10-22T20:09:52.040Z,23.52
2022-10-22T20:12:22.024Z,25.05
2022-10-22T20:14:51.602Z,19.00
2022-10-22T20:17:21.068Z,23.27
2022-10-22T20:22:20.834Z,20.33
2022-10-22T20:24:51.504Z,19.95
2022-10-22T20:27:21.500Z,23.15
2022-10-22T20:29:50.662Z,19.20
2022-10-22T20:32:22.161Z,21.65
2022-10-22T20:34:51.386Z,22.15
2022-10-22T20:37:22.127Z,22.13
2022-10-22T20:39:52.694Z,19.70
2022-10-22T20:42:22.149Z,20.25
2022-10-22T20:44:51.367Z,23.15
2022-10-22T20:47:20.872Z,20.70
2022-10-22T20:49:50.257Z,25.83
2022-10-22T20:52:19.598Z,23.30
2022-10-22T20:54:50.189Z,18.73
2022-10-22T20:57:19.649Z,23.42
2022-10-22T20:59:49.156Z,21.63
2022-10-22T21:02:18.563Z,20.85
2022-10-22T21:07:17.005Z,18.55
2022-10-22T21:09:46.256Z,19.95
2022-10-22T21:12:17.027Z,19.10
2022-10-22T21:14:47.482Z,23.65
2022-10-22T21:17:17.026Z,17.05
2022-10-22T21:19:46.149Z,23.08
2022-10-22T21:22:15.637Z,23.02
2022-10-22T21:24:44.765Z,15.38
2022-10-22T21:27:16.044Z,21.77
2022-10-22T21:29:45.855Z,21.95
2022-10-22T21:32:15.178Z,18.98
2022-10-22T21:34:44.362Z,20.13
2022-10-22T21:39:42.745Z,26.45
2022-10-22T21:44:42.718Z,15.57
2022-10-22T21:47:12.070Z,18.17
2022-10-22T21:49:41.395Z,17.45
2022-10-22T21:54:39.937Z,18.40
2022-10-22T21:57:09.263Z,18.10
2022-10-22T21:59:38.954Z,18.90
2022-10-22T22:04:38.795Z,18.83
2022-10-22T22:07:08.178Z,22.25
2022-10-22T22:12:06.794Z,17.92
2022-10-22T22:14:36.623Z,20.63
2022-10-22T22:17:06.039Z,22.65
2022-10-22T22:19:36.678Z,20.88
2022-10-22T22:22:06.119Z,16.98
2022-10-22T22:24:35.498Z,18.50
2022-10-22T22:27:04.973Z,17.85
2022-10-22T22:34:32.732Z,19.35
2022-10-22T22:39:32.658Z,20.50
2022-10-22T22:44:30.970Z,16.88
2022-10-22T22:49:29.315Z,17.77
2022-10-22T22:54:29.140Z,17.95
2022-10-22T22:56:58.967Z,18.98
2022-10-22T22:59:28.100Z,20.80
2022-10-22T23:01:57.673Z,18.85
2022-10-22T23:04:26.789Z,16.98
2022-10-22T23:09:25.149Z,21.30
2022-10-22T23:11:56.056Z,18.55
2022-10-22T23:14:26.150Z,18.30
2022-10-22T23:16:55.525Z,16.83
2022-10-22T23:19:25.011Z,17.60
2022-10-22T23:21:56.244Z,17.38
2022-10-22T23:24:27.713Z,14.77
2022-10-22T23:27:01.243Z,18.48
2022-10-22T23:29:32.840Z,14.35
2022-10-22T23:32:03.631Z,12.73
2022-10-22T23:34:33.940Z,22.70
2022-10-22T23:37:03.485Z,16.25
2022-10-22T23:39:32.851Z,18.67
2022-10-22T23:42:03.720Z,16.38
2022-10-22T23:44:33.141Z,17.80
2022-10-22T23:47:03.259Z,19.13
2022-10-22T23:49:32.979Z,18.02
2022-10-22T23:52:02.441Z,19.13
2022-10-22T23:57:02.413Z,18.08
2022-10-22T23:59:31.653Z,16.98
